ADDS METAR Data INFO
IDs: Format: Raw Decoded Include TAF

Data at: 0837 UTC 21 Oct 2017

K9A5 210815Z AUTO 00000KT 10SM CLR 08/07 A3023 RMK AO2 T00810070
K9A5 210755Z AUTO 00000KT 10SM CLR 08/07 A3023 RMK AO2 T00810070
K9A5 210735Z AUTO 00000KT 10SM CLR 08/07 A3023 RMK AO2 T00810070
K9A5 210715Z AUTO 00000KT 7SM CLR 08/07 A3023 RMK AO2 T00810070
K9A5 210655Z AUTO 00000KT 10SM CLR 09/07 A3023 RMK AO2 T00850072
K9A5 210635Z AUTO 00000KT 10SM CLR 09/08 A3023 RMK AO2 T00880076
K9A5 210615Z AUTO 00000KT 10SM CLR 09/08 A3023 RMK AO2 T00860075
K9A5 210555Z AUTO 00000KT 10SM CLR 08/07 A3023 RMK AO2 T00820070 10131 20082 402260040
K9A5 210535Z AUTO 00000KT 10SM CLR 09/07 A3022 RMK AO2 T00850073
K9A5 210515Z AUTO 00000KT 7SM CLR 08/07 A3022 RMK AO2 T00840071
K9A5 210455Z AUTO 00000KT 7SM CLR 09/07 A3023 RMK AO2 T00850071
K9A5 210435Z AUTO 00000KT 10SM CLR 09/08 A3023 RMK AO2 T00880075
K9A5 210415Z AUTO 00000KT 10SM CLR 09/08 A3023 RMK AO2 T00890075
K9A5 210355Z AUTO 00000KT 7SM CLR 09/08 A3024 RMK AO2 T00900077
K9A5 210335Z AUTO 00000KT 5SM CLR 09/08 A3023 RMK AO2 T00910077
K9A5 210315Z AUTO 00000KT 7SM CLR 10/08 A3023 RMK AO2 T00970083
K9A5 210255Z AUTO 00000KT 5SM CLR 10/08 A3023 RMK AO2 T00970082
K9A5 210235Z AUTO 00000KT 7SM CLR 10/08 A3023 RMK AO2 T00980083
K9A5 210215Z AUTO 00000KT 7SM CLR 10/09 A3023 RMK AO2 T01020085
K9A5 210155Z AUTO 00000KT 7SM CLR 11/09 A3023 RMK AO2 T01050088
K9A5 210135Z AUTO 00000KT 7SM CLR 11/09 A3023 RMK AO2 T01070088
K9A5 210115Z AUTO 00000KT 7SM CLR 11/09 A3022 RMK AO2 T01120092
K9A5 210055Z AUTO 00000KT 10SM CLR 11/09 A3022 RMK AO2 T01120090
K9A5 210035Z AUTO 00000KT 10SM CLR 12/09 A3022 RMK AO2 T01170092
K9A5 210015Z AUTO 00000KT 10SM CLR 12/09 A3022 RMK AO2 T01220093
K9A5 202355Z AUTO 00000KT 10SM CLR 13/10 A3021 RMK AO2 T01320096 10226 20132
K9A5 202335Z AUTO 00000KT 10SM CLR 14/10 A3021 RMK AO2 T01370097
K9A5 202315Z AUTO 00000KT 10SM CLR 15/10 A3020 RMK AO2 T01460095
K9A5 202255Z AUTO 00000KT 10SM CLR 16/09 A3020 RMK AO2 T01630090
K9A5 202235Z AUTO 00000KT 10SM CLR 18/10 A3019 RMK AO2 T01760102
K9A5 202215Z AUTO 00000KT 10SM CLR 19/10 A3019 RMK AO2 T01900099
K9A5 202155Z AUTO 00000KT 10SM CLR 20/07 A3019 RMK AO2 T01970073
K9A5 202135Z AUTO 00000KT 10SM CLR 22/05 A3019 RMK AO2 T02160053
K9A5 202115Z AUTO 00000KT 10SM CLR 22/02 A3019 RMK AO2 T02210018
K9A5 202055Z AUTO 04003KT 10SM CLR 23/01 A3019 RMK AO2 T02250014
K9A5 202035Z AUTO 00000KT 10SM CLR 22/00 A3020 RMK AO2 T02220001
K9A5 202015Z AUTO 00000KT 10SM CLR 23/M01 A3021 RMK AO2 T02251010
K9A5 201955Z AUTO 00000KT 10SM CLR 22/M05 A3021 RMK AO2 T02241047
K9A5 201935Z AUTO 06003KT 10SM CLR 22/00 A3022 RMK AO2 T02201004
K9A5 201915Z AUTO 00000KT 10SM CLR 22/01 A3023 RMK AO2 T02200011
K9A5 201855Z AUTO 01003KT 10SM CLR 22/03 A3023 RMK AO2 T02150025
K9A5 201835Z AUTO 36004KT 10SM CLR 21/04 A3024 RMK AO2 T02110035
K9A5 201815Z AUTO 00000KT 10SM CLR 21/03 A3026 RMK AO2 T02060034
K9A5 201755Z AUTO 35003KT 10SM CLR 20/04 A3027 RMK AO2 T02010037 10201 20047
K9A5 201735Z AUTO 00000KT 10SM CLR 20/05 A3028 RMK AO2 T01970051
K9A5 201715Z AUTO 08003KT 10SM CLR 19/05 A3029 RMK AO2 T01900054
K9A5 201655Z AUTO 06003KT 10SM CLR 18/06 A3030 RMK AO2 T01830057
K9A5 201635Z AUTO 00000KT 10SM CLR 18/06 A3031 RMK AO2 T01770063
K9A5 201615Z AUTO 00000KT 10SM CLR 17/07 A3031 RMK AO2 T01670065
K9A5 201555Z AUTO 02005KT 10SM CLR 16/07 A3031 RMK AO2 T01570069
K9A5 201535Z AUTO 00000KT 7SM CLR 15/08 A3032 RMK AO2 T01490076
K9A5 201515Z AUTO 02005KT 10SM CLR 14/09 A3033 RMK AO2 T01360094
K9A5 201455Z AUTO 04004KT 10SM CLR 12/10 A3033 RMK AO2 T01230097
K9A5 201435Z AUTO 05003KT 10SM CLR 11/10 A3034 RMK AO2 T01140099
K9A5 201415Z AUTO 06004KT 7SM CLR 10/09 A3034 RMK AO2 T01020090
K9A5 201355Z AUTO 06004KT 7SM CLR 09/08 A3034 RMK AO2 T00940084
K9A5 201335Z AUTO 00000KT 7SM CLR 09/08 A3034 RMK AO2 T00850075
K9A5 201315Z AUTO 00000KT 7SM CLR 08/07 A3033 RMK AO2 T00760066
K9A5 201255Z AUTO 00000KT 7SM CLR 07/06 A3033 RMK AO2 T00660056
K9A5 201235Z AUTO 00000KT 7SM CLR 06/05 A3032 RMK AO2 T00560046
K9A5 201215Z AUTO 00000KT 7SM CLR 05/04 A3032 RMK AO2 T00500040
K9A5 201155Z AUTO 00000KT 1/4SM OVC001 05/04 A3031 RMK AO2 T00500040 10055 20040
K9A5 201135Z AUTO 00000KT 3/4SM OVC001 05/04 A3031 RMK AO2 T00490039
K9A5 201115Z AUTO 00000KT 1SM OVC001 04/03 A3031 RMK AO2 T00420032
K9A5 201055Z AUTO 00000KT 1/2SM OVC001 04/03 A3031 RMK AO2 T00400030
K9A5 201035Z AUTO 00000KT 3/4SM OVC001 04/03 A3030 RMK AO2 T00420031
K9A5 201015Z AUTO 00000KT 1 1/2SM BKN001 04/03 A3030 RMK AO2 T00420031
K9A5 200955Z AUTO 00000KT 10SM CLR 04/03 A3029 RMK AO2 T00420031
K9A5 200935Z AUTO 00000KT 10SM CLR 04/03 A3029 RMK AO2 T00420031
K9A5 200915Z AUTO 00000KT 10SM CLR 04/03 A3028 RMK AO2 T00420031
K9A5 200855Z AUTO 00000KT 10SM CLR 04/03 A3028 RMK AO2 T00430032
K9A5 200835Z AUTO 00000KT 10SM CLR 05/03 A3028 RMK AO2 T00450033
K9A5 200815Z AUTO 00000KT 10SM CLR 05/03 A3028 RMK AO2 T00450033
K9A5 200755Z AUTO 00000KT 10SM CLR 05/04 A3028 RMK AO2 T00460035
K9A5 200735Z AUTO 00000KT 10SM CLR 05/04 A3028 RMK AO2 T00500037
K9A5 200715Z AUTO 00000KT 10SM CLR 05/04 A3028 RMK AO2 T00510040
K9A5 200655Z AUTO 00000KT 10SM CLR 05/04 A3028 RMK AO2 T00510040
K9A5 200635Z AUTO 00000KT 10SM CLR 05/04 A3028 RMK AO2 T00520040
K9A5 200615Z AUTO 00000KT 7SM CLR 05/04 A3028 RMK AO2 T00530041
K9A5 200555Z AUTO 00000KT 10SM CLR 06/04 A3028 RMK AO2 T00550042 10113 20055 402130038
K9A5 200535Z AUTO 00000KT 10SM CLR 06/05 A3028 RMK AO2 T00600046
K9A5 200515Z AUTO 00000KT 10SM CLR 06/05 A3028 RMK AO2 T00600047
K9A5 200455Z AUTO 00000KT 10SM CLR 06/05 A3028 RMK AO2 T00600047
K9A5 200435Z AUTO 00000KT 10SM CLR 06/05 A3028 RMK AO2 T00620048
K9A5 200415Z AUTO 00000KT 10SM CLR 07/05 A3028 RMK AO2 T00660052
K9A5 200355Z AUTO 00000KT 10SM CLR 07/05 A3028 RMK AO2 T00670053
K9A5 200335Z AUTO 00000KT 10SM CLR 07/06 A3028 RMK AO2 T00700056
K9A5 200320Z AUTO 00000KT 10SM CLR 07/06 A3028 RMK AO2 T00710056
K9A5 200255Z AUTO 00000KT 10SM CLR 07/06 A3028 RMK AO2 T00740059
K9A5 200235Z AUTO 00000KT 10SM CLR 08/06 A3028 RMK AO2 T00770061
K9A5 200215Z AUTO 00000KT 10SM CLR 08/06 A3027 RMK AO2 T00810064
K9A5 200155Z AUTO 00000KT 10SM CLR 09/07 A3027 RMK AO2 T00850065
K9A5 200135Z AUTO 00000KT 10SM CLR 09/07 A3027 RMK AO2 T00880067
K9A5 200115Z AUTO 00000KT 10SM CLR 09/07 A3027 RMK AO2 T00910068
K9A5 200055Z AUTO 00000KT 7SM CLR 10/07 A3027 RMK AO2 T00970070
K9A5 200035Z AUTO 00000KT 7SM CLR 10/07 A3027 RMK AO2 T01010071
K9A5 200015Z AUTO 00000KT 7SM CLR 11/07 A3027 RMK AO2 T01070073
K9A5 192355Z AUTO 00000KT 10SM CLR 11/08 A3026 RMK AO2 T01140075 10213 20114
K9A5 192335Z AUTO 00000KT 10SM CLR 13/07 A3026 RMK AO2 T01270067
K9A5 192315Z AUTO 00000KT 7SM CLR 14/07 A3026 RMK AO2 T01360074
K9A5 192255Z AUTO 00000KT 10SM CLR 15/07 A3025 RMK AO2 T01540065
K9A5 192235Z AUTO 00000KT 10SM CLR 17/04 A3025 RMK AO2 T01720044
K9A5 192215Z AUTO 00000KT 10SM CLR 19/02 A3025 RMK AO2 T01920015
K9A5 192155Z AUTO 00000KT 10SM CLR 20/01 A3025 RMK AO2 T01990009
K9A5 192135Z AUTO 00000KT 10SM CLR 21/M01 A3025 RMK AO2 T02061007
K9A5 192115Z AUTO 00000KT 10SM CLR 21/M01 A3026 RMK AO2 T02091006
K9A5 192055Z AUTO 00000KT 10SM CLR 21/M01 A3026 RMK AO2 T02081006